createdAt,value
2019-02-10T07:15:05.089Z,68.40
2019-02-10T07:20:41.009Z,68.10
2019-02-10T07:25:58.049Z,66.60
2019-02-10T07:31:02.526Z,66.40
2019-02-10T07:36:24.770Z,66.80
2019-02-10T07:42:22.157Z,65.10
2019-02-10T07:48:07.943Z,64.30
2019-02-10T07:53:43.464Z,63.00
2019-02-10T07:59:33.869Z,63.00
2019-02-10T08:05:04.289Z,61.60
2019-02-10T08:10:45.047Z,62.00
2019-02-10T08:16:22.866Z,62.70
2019-02-10T08:22:06.338Z,64.60
2019-02-10T08:27:42.400Z,64.80
2019-02-10T08:33:35.251Z,66.00
2019-02-10T08:39:04.486Z,66.70
2019-02-10T08:45:03.346Z,67.70
2019-02-10T08:51:00.207Z,69.40
2019-02-10T08:56:04.467Z,70.40
2019-02-10T09:01:10.223Z,69.40
2019-02-10T09:06:14.320Z,69.50
2019-02-10T09:11:19.931Z,68.60
2019-02-10T09:16:24.559Z,67.00
2019-02-10T09:21:28.703Z,67.50
2019-02-10T09:26:33.171Z,68.40
2019-02-10T09:31:37.474Z,68.60
2019-02-10T09:36:41.840Z,66.30
2019-02-10T09:41:47.264Z,66.40
2019-02-10T09:46:51.532Z,66.00
2019-02-10T09:51:55.687Z,63.90
2019-02-10T09:57:00.247Z,63.90
2019-02-10T10:02:04.787Z,64.80
2019-02-10T10:07:09.148Z,64.40
2019-02-10T10:12:13.392Z,64.00
2019-02-10T10:17:17.607Z,64.00
2019-02-10T10:22:22.517Z,64.10
2019-02-10T10:27:27.657Z,63.00
2019-02-10T10:32:32.994Z,62.60
2019-02-10T10:37:37.867Z,61.60
2019-02-10T10:42:43.285Z,61.50
2019-02-10T10:47:48.481Z,61.50
2019-02-10T10:52:54.243Z,60.60
2019-02-10T10:57:59.536Z,61.90
2019-02-10T11:03:04.919Z,63.20
2019-02-10T11:08:09.874Z,63.00
2019-02-10T11:13:15.609Z,65.40
2019-02-10T11:18:22.127Z,67.90
2019-02-10T11:23:27.892Z,68.50
2019-02-10T11:28:32.630Z,69.50
2019-02-10T11:33:37.559Z,71.20
2019-02-10T11:38:42.585Z,71.70
2019-02-10T11:43:47.598Z,71.80
2019-02-10T11:48:52.694Z,73.40
2019-02-10T11:54:06.616Z,74.80
2019-02-10T11:59:14.094Z,76.20
2019-02-10T12:04:19.276Z,78.40
2019-02-10T12:09:24.711Z,82.40
2019-02-10T12:14:29.791Z,85.50
2019-02-10T12:19:35.996Z,88.90
2019-02-10T12:24:40.981Z,93.40
2019-02-10T12:29:46.003Z,94.40
2019-02-10T12:34:51.177Z,97.30
2019-02-10T12:39:59.790Z,96.60
2019-02-10T12:45:03.765Z,98.20
2019-02-10T12:50:09.687Z,99.10
2019-02-10T12:55:13.788Z,97.10
2019-02-10T13:00:18.244Z,96.00
2019-02-10T13:05:22.913Z,97.50
2019-02-10T13:10:27.223Z,95.70
2019-02-10T13:15:31.962Z,95.00
2019-02-10T13:20:36.335Z,93.60
2019-02-10T13:25:40.803Z,92.90
2019-02-10T13:30:45.158Z,92.90
2019-02-10T13:35:48.643Z,91.80
2019-02-10T13:40:53.540Z,92.00
2019-02-10T13:45:56.965Z,90.20
2019-02-10T13:51:01.762Z,91.20
2019-02-10T13:56:05.504Z,92.30
2019-02-10T14:01:09.677Z,93.10
2019-02-10T14:06:13.326Z,94.10
2019-02-10T14:11:18.338Z,94.50
2019-02-10T14:16:22.721Z,94.70
2019-02-10T14:21:27.055Z,93.60
2019-02-10T14:26:31.131Z,89.80
2019-02-10T14:31:35.356Z,84.70
2019-02-10T14:36:41.065Z,77.60
2019-02-10T14:41:45.474Z,78.30
2019-02-10T14:46:49.504Z,77.90
2019-02-10T14:51:53.667Z,78.50
2019-02-10T14:56:57.747Z,82.40
2019-02-10T15:02:02.538Z,82.20
2019-02-10T15:07:08.753Z,82.10
2019-02-10T15:12:13.163Z,83.20
2019-02-10T15:17:17.599Z,82.70
